createdAt,value
2018-07-25T00:00:00.986Z,1013.53
2018-07-25T00:01:01.190Z,1013.54
2018-07-25T00:02:01.074Z,1013.55
2018-07-25T00:03:00.955Z,1013.53
2018-07-25T00:04:00.988Z,1013.5
2018-07-25T00:05:01.036Z,1013.55
2018-07-25T00:06:00.945Z,1013.52
2018-07-25T00:07:01.253Z,1013.53
2018-07-25T00:08:00.905Z,1013.56
2018-07-25T00:09:01.094Z,1013.53
2018-07-25T00:10:00.976Z,1013.54
2018-07-25T00:11:01.202Z,1013.57
2018-07-25T00:12:01.010Z,1013.55
2018-07-25T00:13:00.994Z,1013.57
2018-07-25T00:14:01.116Z,1013.55
2018-07-25T00:15:01.022Z,1013.55
2018-07-25T00:16:01.290Z,1013.58
2018-07-25T00:17:01.099Z,1013.57
2018-07-25T00:18:01.185Z,1013.58
2018-07-25T00:19:01.031Z,1013.55
2018-07-25T00:20:00.998Z,1013.56
2018-07-25T00:21:01.099Z,1013.56
2018-07-25T00:22:01.093Z,1013.58
2018-07-25T00:23:01.135Z,1013.61
2018-07-25T00:24:00.965Z,1013.62
2018-07-25T00:25:01.095Z,1013.56
2018-07-25T00:26:01.177Z,1013.57
2018-07-25T00:27:01.194Z,1013.58
2018-07-25T00:28:01.146Z,1013.58
2018-07-25T00:29:01.223Z,1013.55
2018-07-25T00:30:01.047Z,1013.57
2018-07-25T00:31:01.214Z,1013.55
2018-07-25T00:32:01.267Z,1013.52
2018-07-25T00:33:00.957Z,1013.53
2018-07-25T00:34:01.137Z,1013.52
2018-07-25T00:35:01.137Z,1013.56
2018-07-25T00:36:00.992Z,1013.54
2018-07-25T00:37:01.141Z,1013.54
2018-07-25T00:38:01.042Z,1013.55
2018-07-25T00:39:01.078Z,1013.54
2018-07-25T00:40:01.056Z,1013.54
2018-07-25T00:41:01.161Z,1013.5
2018-07-25T00:42:00.995Z,1013.54
2018-07-25T00:43:01.323Z,1013.51
2018-07-25T00:44:01.050Z,1013.5
2018-07-25T00:45:01.298Z,1013.52
2018-07-25T00:46:01.423Z,1013.47
2018-07-25T00:47:01.043Z,1013.51
2018-07-25T00:48:01.050Z,1013.52
2018-07-25T00:49:00.961Z,1013.51
2018-07-25T00:50:00.879Z,1013.51
2018-07-25T00:51:01.131Z,1013.52
2018-07-25T00:52:01.166Z,1013.48
2018-07-25T00:53:01.291Z,1013.52
2018-07-25T00:54:01.241Z,1013.53
2018-07-25T00:55:01.154Z,1013.54
2018-07-25T00:56:01.217Z,1013.54
2018-07-25T00:57:01.287Z,1013.51
2018-07-25T00:58:01.267Z,1013.54
2018-07-25T00:59:01.133Z,1013.55
2018-07-25T01:00:01.086Z,1013.55
2018-07-25T01:01:01.013Z,1013.53
2018-07-25T01:02:00.953Z,1013.53
2018-07-25T01:03:01.104Z,1013.53
2018-07-25T01:04:01.169Z,1013.54
2018-07-25T01:05:01.049Z,1013.56
2018-07-25T01:06:01.237Z,1013.58
2018-07-25T01:07:01.198Z,1013.55
2018-07-25T01:08:00.971Z,1013.55
2018-07-25T01:09:00.928Z,1013.56
2018-07-25T01:10:01.118Z,1013.6
2018-07-25T01:11:01.070Z,1013.57
2018-07-25T01:12:01.159Z,1013.58
2018-07-25T01:13:01.081Z,1013.53
2018-07-25T01:14:01.051Z,1013.55
2018-07-25T01:15:01.036Z,1013.55
2018-07-25T01:16:01.005Z,1013.55
2018-07-25T01:17:00.983Z,1013.53
2018-07-25T01:18:00.991Z,1013.55
2018-07-25T01:19:01.009Z,1013.53
2018-07-25T01:20:01.009Z,1013.54
2018-07-25T01:21:01.155Z,1013.53
2018-07-25T01:22:01.040Z,1013.55
2018-07-25T01:23:01.253Z,1013.58
2018-07-25T01:24:01.205Z,1013.55
2018-07-25T01:25:00.997Z,1013.57
2018-07-25T01:26:01.018Z,1013.59
2018-07-25T01:27:00.918Z,1013.55
2018-07-25T01:28:01.148Z,1013.55
2018-07-25T01:29:01.115Z,1013.58
2018-07-25T01:30:01.231Z,1013.57
2018-07-25T01:31:01.121Z,1013.62
2018-07-25T01:32:01.238Z,1013.64
2018-07-25T01:33:00.891Z,1013.61
2018-07-25T01:34:01.027Z,1013.65
2018-07-25T01:35:01.025Z,1013.66
2018-07-25T01:36:00.936Z,1013.67
2018-07-25T01:37:01.039Z,1013.66
2018-07-25T01:38:01.171Z,1013.72
2018-07-25T01:39:00.974Z,1013.69
2018-07-25T01:40:00.985Z,1013.65
2018-07-25T01:41:01.295Z,1013.64
2018-07-25T01:42:01.082Z,1013.69
2018-07-25T01:43:01.067Z,1013.71
2018-07-25T01:44:01.064Z,1013.69
2018-07-25T01:45:01.067Z,1013.66
2018-07-25T01:46:01.172Z,1013.68
2018-07-25T01:47:01.404Z,1013.69
2018-07-25T01:48:00.968Z,1013.69
2018-07-25T01:49:01.382Z,1013.71
2018-07-25T01:50:01.263Z,1013.74
2018-07-25T01:51:01.191Z,1013.72
2018-07-25T01:52:01.234Z,1013.7
2018-07-25T01:53:01.044Z,1013.72
2018-07-25T01:54:00.888Z,1013.69
2018-07-25T01:55:01.179Z,1013.72
2018-07-25T01:56:01.122Z,1013.71
2018-07-25T01:57:00.938Z,1013.7
2018-07-25T01:58:01.361Z,1013.69
2018-07-25T01:59:01.112Z,1013.7
2018-07-25T02:00:00.990Z,1013.71
2018-07-25T02:01:00.891Z,1013.72
2018-07-25T02:02:01.216Z,1013.69
2018-07-25T02:03:00.883Z,1013.76
2018-07-25T02:04:01.228Z,1013.74
2018-07-25T02:05:01.198Z,1013.75
2018-07-25T02:06:01.042Z,1013.75
2018-07-25T02:07:01.115Z,1013.74
2018-07-25T02:08:01.379Z,1013.75
2018-07-25T02:09:01.058Z,1013.81
2018-07-25T02:10:01.115Z,1013.81
2018-07-25T02:11:01.121Z,1013.79
2018-07-25T02:12:00.923Z,1013.78
2018-07-25T02:13:01.032Z,1013.79
2018-07-25T02:14:01.209Z,1013.81
2018-07-25T02:15:01.110Z,1013.83
2018-07-25T02:16:01.239Z,1013.8
2018-07-25T02:17:01.147Z,1013.83
2018-07-25T02:18:01.180Z,1013.76
2018-07-25T02:19:01.129Z,1013.79
2018-07-25T02:20:01.221Z,1013.78
2018-07-25T02:21:00.958Z,1013.85
2018-07-25T02:22:01.173Z,1013.81
2018-07-25T02:23:01.200Z,1013.79
2018-07-25T02:24:01.189Z,1013.84
2018-07-25T02:25:01.020Z,1013.84
2018-07-25T02:26:00.920Z,1013.85
2018-07-25T02:27:00.981Z,1013.85
2018-07-25T02:28:01.097Z,1013.89
2018-07-25T02:29:01.102Z,1013.89
2018-07-25T02:30:00.972Z,1013.87
2018-07-25T02:31:01.093Z,1013.87
2018-07-25T02:32:01.018Z,1013.91
2018-07-25T02:33:00.993Z,1013.88
2018-07-25T02:34:00.945Z,1013.91
2018-07-25T02:35:01.138Z,1013.9
2018-07-25T02:36:00.933Z,1013.9
2018-07-25T02:37:01.320Z,1013.87
2018-07-25T02:38:01.238Z,1013.88
2018-07-25T02:39:00.970Z,1013.89
2018-07-25T02:40:01.074Z,1013.89
2018-07-25T02:41:01.055Z,1013.89
2018-07-25T02:42:00.969Z,1013.92
2018-07-25T02:43:01.090Z,1013.9
2018-07-25T02:44:01.084Z,1013.91
2018-07-25T02:45:01.151Z,1013.95
2018-07-25T02:46:01.157Z,1013.94
2018-07-25T02:47:01.436Z,1013.94
2018-07-25T02:48:00.933Z,1013.94
2018-07-25T02:49:01.075Z,1013.96
2018-07-25T02:50:01.075Z,1013.98
2018-07-25T02:51:01.122Z,1014.01
2018-07-25T02:52:01.157Z,1014.02
2018-07-25T02:53:00.888Z,1013.99
2018-07-25T02:54:01.095Z,1014.02
2018-07-25T02:55:01.083Z,1014.03
2018-07-25T02:56:00.966Z,1014.06
2018-07-25T02:57:01.387Z,1014.04
2018-07-25T02:58:00.976Z,1014.04
2018-07-25T02:59:01.154Z,1014.07
2018-07-25T03:00:01.136Z,1014.05
2018-07-25T03:01:01.165Z,1014.07
2018-07-25T03:02:01.689Z,1014.07
2018-07-25T03:03:01.048Z,1014.06
2018-07-25T03:04:00.944Z,1014.06
2018-07-25T03:05:01.094Z,1014.1
2018-07-25T03:06:00.941Z,1014.07
2018-07-25T03:07:01.577Z,1014.08
2018-07-25T03:08:01.353Z,1014.1
2018-07-25T03:09:01.888Z,1014.1
2018-07-25T03:10:01.298Z,1014.07
2018-07-25T03:11:01.153Z,1014.09
2018-07-25T03:12:01.159Z,1014.08
2018-07-25T03:13:01.033Z,1014.09
2018-07-25T03:14:01.113Z,1014.09
2018-07-25T03:15:01.070Z,1014.1
2018-07-25T03:16:01.106Z,1014.1
2018-07-25T03:17:01.170Z,1014.08
2018-07-25T03:18:01.128Z,1014.14
2018-07-25T03:19:01.249Z,1014.16
2018-07-25T03:20:01.425Z,1014.11
2018-07-25T03:21:01.235Z,1014.12
2018-07-25T03:22:00.999Z,1014.14
2018-07-25T03:23:01.020Z,1014.16
2018-07-25T03:24:00.878Z,1014.14
2018-07-25T03:25:01.946Z,1014.16
2018-07-25T03:26:00.955Z,1014.17
2018-07-25T03:27:01.042Z,1014.21
2018-07-25T03:28:01.050Z,1014.23
2018-07-25T03:29:01.465Z,1014.21
2018-07-25T03:30:01.032Z,1014.23
2018-07-25T03:31:01.042Z,1014.22
2018-07-25T03:32:01.169Z,1014.15
2018-07-25T03:33:00.956Z,1014.22
2018-07-25T03:34:01.484Z,1014.2
2018-07-25T03:35:01.024Z,1014.22
2018-07-25T03:36:01.332Z,1014.23
2018-07-25T03:37:01.183Z,1014.19
2018-07-25T03:38:01.512Z,1014.21
2018-07-25T03:39:01.211Z,1014.22
2018-07-25T03:40:01.127Z,1014.2
2018-07-25T03:41:00.902Z,1014.24
2018-07-25T03:42:11.057Z,1014.25
2018-07-25T03:43:01.243Z,1014.21
2018-07-25T03:44:01.000Z,1014.22
2018-07-25T03:45:01.089Z,1014.23
2018-07-25T03:46:01.214Z,1014.23
2018-07-25T03:47:00.884Z,1014.25
2018-07-25T03:48:01.042Z,1014.24
2018-07-25T03:49:00.968Z,1014.25
2018-07-25T03:50:01.010Z,1014.26
2018-07-25T03:51:01.076Z,1014.25
2018-07-25T03:52:01.007Z,1014.24
2018-07-25T03:53:01.042Z,1014.24
2018-07-25T03:54:00.976Z,1014.25
2018-07-25T03:55:01.127Z,1014.29
2018-07-25T03:56:00.911Z,1014.3
2018-07-25T03:57:00.956Z,1014.3
2018-07-25T03:58:00.841Z,1014.32
2018-07-25T03:59:01.113Z,1014.35
2018-07-25T04:00:01.071Z,1014.38
2018-07-25T04:01:00.956Z,1014.35
2018-07-25T04:02:01.323Z,1014.41
2018-07-25T04:03:01.278Z,1014.39
2018-07-25T04:04:01.080Z,1014.38
2018-07-25T04:05:00.861Z,1014.42
2018-07-25T04:06:01.148Z,1014.4
2018-07-25T04:07:01.003Z,1014.43
2018-07-25T04:08:01.083Z,1014.44
2018-07-25T04:09:01.142Z,1014.46
2018-07-25T04:10:01.052Z,1014.49
2018-07-25T04:11:00.950Z,1014.45
2018-07-25T04:12:01.074Z,1014.48
2018-07-25T04:13:00.924Z,1014.47
2018-07-25T04:14:00.965Z,1014.5
2018-07-25T04:15:01.035Z,1014.51
2018-07-25T04:16:01.201Z,1014.52
2018-07-25T04:17:01.125Z,1014.49
2018-07-25T04:18:01.199Z,1014.54
2018-07-25T04:19:00.778Z,1014.51
2018-07-25T04:20:01.068Z,1014.49
2018-07-25T04:21:01.084Z,1014.48
2018-07-25T04:22:01.173Z,1014.5
2018-07-25T04:23:00.948Z,1014.51
2018-07-25T04:24:00.964Z,1014.51
2018-07-25T04:25:01.091Z,1014.46
2018-07-25T04:26:00.943Z,1014.46
2018-07-25T04:27:00.953Z,1014.52
2018-07-25T04:28:00.934Z,1014.52
2018-07-25T04:29:01.000Z,1014.55
2018-07-25T04:30:01.086Z,1014.53
2018-07-25T04:31:01.116Z,1014.54
2018-07-25T04:32:00.904Z,1014.58
2018-07-25T04:33:01.185Z,1014.57
2018-07-25T04:34:00.975Z,1014.51
2018-07-25T04:35:00.956Z,1014.55
2018-07-25T04:36:01.269Z,1014.61
2018-07-25T04:37:01.051Z,1014.54
2018-07-25T04:38:01.128Z,1014.6
2018-07-25T04:39:01.187Z,1014.59
2018-07-25T04:40:01.096Z,1014.62
2018-07-25T04:41:00.882Z,1014.64
2018-07-25T04:42:01.125Z,1014.64
2018-07-25T04:43:01.173Z,1014.67
2018-07-25T04:44:00.906Z,1014.64
2018-07-25T04:45:01.059Z,1014.62
2018-07-25T04:46:01.366Z,1014.62
2018-07-25T04:47:01.149Z,1014.65
2018-07-25T04:48:01.023Z,1014.66
2018-07-25T04:49:01.143Z,1014.65
2018-07-25T04:50:00.924Z,1014.67
2018-07-25T04:51:01.064Z,1014.67
2018-07-25T04:52:01.093Z,1014.67
2018-07-25T04:53:01.145Z,1014.7
2018-07-25T04:54:00.962Z,1014.73
2018-07-25T04:55:00.988Z,1014.69
2018-07-25T04:56:01.015Z,1014.7
2018-07-25T04:57:00.983Z,1014.69
2018-07-25T04:58:01.121Z,1014.7
2018-07-25T04:59:00.847Z,1014.71
2018-07-25T05:00:01.037Z,1014.72
2018-07-25T05:01:00.844Z,1014.75
2018-07-25T05:02:00.997Z,1014.75
2018-07-25T05:03:00.965Z,1014.76
2018-07-25T05:04:00.963Z,1014.75
2018-07-25T05:05:00.856Z,1014.78
2018-07-25T05:06:01.042Z,1014.82
2018-07-25T05:07:01.012Z,1014.8
2018-07-25T05:08:00.878Z,1014.81
2018-07-25T05:09:01.109Z,1014.83
2018-07-25T05:10:00.886Z,1014.81
2018-07-25T05:11:01.003Z,1014.78
2018-07-25T05:12:01.089Z,1014.81
2018-07-25T05:13:01.084Z,1014.83
2018-07-25T05:14:01.056Z,1014.83
2018-07-25T05:15:01.083Z,1014.85
2018-07-25T05:16:01.066Z,1014.81
2018-07-25T05:17:00.995Z,1014.79
2018-07-25T05:18:01.934Z,1014.85
2018-07-25T05:19:01.004Z,1014.85
2018-07-25T05:20:01.050Z,1014.87
2018-07-25T05:21:00.894Z,1014.89
2018-07-25T05:22:01.101Z,1014.89
2018-07-25T05:23:00.936Z,1014.9
2018-07-25T05:24:01.201Z,1014.93
2018-07-25T05:25:01.140Z,1014.92
2018-07-25T05:26:00.841Z,1014.91
2018-07-25T05:27:01.132Z,1014.95
2018-07-25T05:28:01.037Z,1014.94
2018-07-25T05:29:01.129Z,1014.99
2018-07-25T05:30:01.125Z,1014.93
2018-07-25T05:31:01.011Z,1014.95
2018-07-25T05:32:00.858Z,1014.97
2018-07-25T05:33:00.787Z,1015.02
2018-07-25T05:34:01.131Z,1015
2018-07-25T05:35:00.860Z,1014.96
2018-07-25T05:36:01.145Z,1014.99
2018-07-25T05:37:01.029Z,1015.02
2018-07-25T05:38:01.447Z,1015.06
2018-07-25T05:39:01.032Z,1015.03
2018-07-25T05:40:00.906Z,1015.02
2018-07-25T05:41:01.004Z,1015.03
2018-07-25T05:42:01.104Z,1015.01
2018-07-25T05:43:01.050Z,1015.02
2018-07-25T05:44:00.864Z,1015.04
2018-07-25T05:45:01.010Z,1015.05
2018-07-25T05:46:01.021Z,1015.05
2018-07-25T05:47:00.981Z,1015.05
2018-07-25T05:48:00.987Z,1015.09
2018-07-25T05:49:01.069Z,1015.05
2018-07-25T05:50:01.007Z,1015.09
2018-07-25T05:51:01.002Z,1015.12
2018-07-25T05:52:00.841Z,1015.06
2018-07-25T05:53:00.896Z,1015.07
2018-07-25T05:54:01.117Z,1015.11
2018-07-25T05:55:00.989Z,1015.04
2018-07-25T05:56:00.999Z,1015.1
2018-07-25T05:57:00.918Z,1015.1
2018-07-25T05:58:01.063Z,1015.11
2018-07-25T05:59:00.881Z,1015.09
2018-07-25T06:00:00.963Z,1015.13
2018-07-25T06:01:00.977Z,1015.1
2018-07-25T06:02:00.888Z,1015.12
2018-07-25T06:03:01.753Z,1015.13
2018-07-25T06:04:01.010Z,1015.12
2018-07-25T06:05:01.006Z,1015.1
2018-07-25T06:06:01.317Z,1015.11
2018-07-25T06:07:00.918Z,1015.11
2018-07-25T06:08:00.898Z,1015.11
2018-07-25T06:09:00.976Z,1015.11
2018-07-25T06:10:00.935Z,1015.14
2018-07-25T06:11:01.060Z,1015.15
2018-07-25T06:12:00.840Z,1015.14
2018-07-25T06:13:00.907Z,1015.13
2018-07-25T06:14:00.930Z,1015.14
2018-07-25T06:15:01.024Z,1015.14
2018-07-25T06:16:00.948Z,1015.15
2018-07-25T06:17:00.910Z,1015.16
2018-07-25T06:18:00.844Z,1015.15
2018-07-25T06:19:01.020Z,1015.13
2018-07-25T06:20:00.808Z,1015.2
2018-07-25T06:21:00.968Z,1015.16
2018-07-25T06:22:00.882Z,1015.15
2018-07-25T06:23:00.853Z,1015.18
2018-07-25T06:24:00.949Z,1015.18
2018-07-25T06:25:01.047Z,1015.22
2018-07-25T06:26:01.226Z,1015.18
2018-07-25T06:27:00.878Z,1015.22
2018-07-25T06:28:00.985Z,1015.19
2018-07-25T06:29:00.817Z,1015.19
2018-07-25T06:30:00.942Z,1015.24
2018-07-25T06:31:01.137Z,1015.19
2018-07-25T06:32:00.860Z,1015.19
2018-07-25T06:33:01.059Z,1015.21
2018-07-25T06:34:00.865Z,1015.21
2018-07-25T06:35:01.003Z,1015.21
2018-07-25T06:36:00.828Z,1015.2
2018-07-25T06:37:00.992Z,1015.21
2018-07-25T06:38:01.380Z,1015.22
2018-07-25T06:39:00.952Z,1015.21
2018-07-25T06:40:01.001Z,1015.25
2018-07-25T06:41:00.825Z,1015.23
2018-07-25T06:42:01.187Z,1015.23
2018-07-25T06:43:00.996Z,1015.24
2018-07-25T06:44:00.924Z,1015.23
2018-07-25T06:45:00.871Z,1015.25
2018-07-25T06:46:01.004Z,1015.23
2018-07-25T06:47:01.294Z,1015.25
2018-07-25T06:48:00.921Z,1015.26
2018-07-25T06:49:01.005Z,1015.33
2018-07-25T06:50:00.874Z,1015.28
2018-07-25T06:51:01.023Z,1015.36
2018-07-25T06:52:00.981Z,1015.31
2018-07-25T06:53:00.861Z,1015.33
2018-07-25T06:54:00.916Z,1015.36
2018-07-25T06:55:01.006Z,1015.34
2018-07-25T06:56:01.053Z,1015.38
2018-07-25T06:57:01.228Z,1015.42
2018-07-25T06:58:01.216Z,1015.4
2018-07-25T06:59:00.975Z,1015.42
2018-07-25T07:00:01.106Z,1015.38
2018-07-25T07:01:00.942Z,1015.42
2018-07-25T07:02:00.863Z,1015.42
2018-07-25T07:03:01.067Z,1015.43
2018-07-25T07:04:00.755Z,1015.44
2018-07-25T07:05:01.047Z,1015.39
2018-07-25T07:06:01.090Z,1015.45
2018-07-25T07:07:01.547Z,1015.42
2018-07-25T07:08:00.951Z,1015.43
2018-07-25T07:09:00.842Z,1015.4
2018-07-25T07:10:00.970Z,1015.45
2018-07-25T07:11:01.090Z,1015.46
2018-07-25T07:12:01.058Z,1015.43
2018-07-25T07:13:01.005Z,1015.41
2018-07-25T07:14:01.174Z,1015.44
2018-07-25T07:15:01.162Z,1015.47
2018-07-25T07:16:00.984Z,1015.43
2018-07-25T07:17:00.783Z,1015.47
2018-07-25T07:18:01.108Z,1015.45
2018-07-25T07:19:01.101Z,1015.47
2018-07-25T07:20:00.913Z,1015.46
2018-07-25T07:21:00.946Z,1015.41
2018-07-25T07:22:00.816Z,1015.43
2018-07-25T07:23:01.103Z,1015.47
2018-07-25T07:24:01.294Z,1015.46
2018-07-25T07:25:00.858Z,1015.44
2018-07-25T07:26:01.012Z,1015.44
2018-07-25T07:27:00.900Z,1015.48
2018-07-25T07:28:00.887Z,1015.47
2018-07-25T07:29:00.905Z,1015.48
2018-07-25T07:30:01.057Z,1015.46
2018-07-25T07:31:01.010Z,1015.49
2018-07-25T07:32:00.926Z,1015.45
2018-07-25T07:33:00.973Z,1015.42
2018-07-25T07:34:01.043Z,1015.45
2018-07-25T07:35:01.105Z,1015.41
2018-07-25T07:36:01.016Z,1015.48
2018-07-25T07:37:01.003Z,1015.45
2018-07-25T07:38:00.866Z,1015.43
2018-07-25T07:39:01.057Z,1015.44
2018-07-25T07:40:01.031Z,1015.46
2018-07-25T07:41:00.938Z,1015.44
2018-07-25T07:42:00.967Z,1015.4
2018-07-25T07:43:00.904Z,1015.44
2018-07-25T07:44:11.235Z,1015.43
2018-07-25T07:45:00.918Z,1015.44
2018-07-25T07:46:00.819Z,1015.47
2018-07-25T07:47:01.055Z,1015.43
2018-07-25T07:48:01.015Z,1015.45
2018-07-25T07:49:01.055Z,1015.44
2018-07-25T07:50:01.079Z,1015.45
2018-07-25T07:51:01.104Z,1015.42
2018-07-25T07:52:00.879Z,1015.45
2018-07-25T07:53:00.955Z,1015.45
2018-07-25T07:54:01.353Z,1015.42
2018-07-25T07:55:01.040Z,1015.47
2018-07-25T07:56:00.925Z,1015.45
2018-07-25T07:57:01.028Z,1015.46
2018-07-25T07:58:00.817Z,1015.43
2018-07-25T07:59:01.043Z,1015.43
2018-07-25T08:00:00.989Z,1015.46
2018-07-25T08:01:00.924Z,1015.48
2018-07-25T08:02:00.933Z,1015.43
2018-07-25T08:03:01.126Z,1015.48
2018-07-25T08:04:00.930Z,1015.41
2018-07-25T08:05:01.381Z,1015.46
2018-07-25T08:06:00.923Z,1015.42
2018-07-25T08:07:00.769Z,1015.42
2018-07-25T08:08:00.978Z,1015.45
2018-07-25T08:09:00.980Z,1015.45
2018-07-25T08:10:00.993Z,1015.46
2018-07-25T08:11:01.070Z,1015.46
2018-07-25T08:12:00.956Z,1015.45
2018-07-25T08:13:00.916Z,1015.45
2018-07-25T08:14:00.946Z,1015.45
2018-07-25T08:15:01.192Z,1015.49
2018-07-25T08:16:00.771Z,1015.48
2018-07-25T08:17:00.917Z,1015.47
2018-07-25T08:18:01.193Z,1015.45
2018-07-25T08:19:01.088Z,1015.47
2018-07-25T08:20:01.145Z,1015.46
2018-07-25T08:21:01.345Z,1015.44
2018-07-25T08:22:00.916Z,1015.48
2018-07-25T08:23:00.860Z,1015.46
2018-07-25T08:24:00.932Z,1015.5
2018-07-25T08:25:00.965Z,1015.49
2018-07-25T08:26:00.992Z,1015.46
2018-07-25T08:27:00.952Z,1015.47
2018-07-25T08:28:00.953Z,1015.45
2018-07-25T08:29:01.013Z,1015.43
2018-07-25T08:30:01.059Z,1015.44
2018-07-25T08:31:01.037Z,1015.42
2018-07-25T08:32:01.105Z,1015.41
2018-07-25T08:33:01.112Z,1015.38
2018-07-25T08:34:00.892Z,1015.36
2018-07-25T08:35:00.994Z,1015.37
2018-07-25T08:36:01.180Z,1015.39
2018-07-25T08:37:01.065Z,1015.37
2018-07-25T08:38:00.962Z,1015.39
2018-07-25T08:39:00.972Z,1015.41
2018-07-25T08:40:01.027Z,1015.39
2018-07-25T08:41:01.045Z,1015.37
2018-07-25T09:41:27.294Z,1015.14
2018-07-25T09:42:27.404Z,1015.16
2018-07-25T09:43:27.524Z,1015.14
2018-07-25T09:44:28.421Z,1015.12
2018-07-25T09:46:27.755Z,1015.13
2018-07-25T09:47:27.474Z,1015.12
2018-07-25T09:48:27.248Z,1015.09
2018-07-25T09:49:27.353Z,1015.09
2018-07-25T09:51:28.138Z,1015.06
2018-07-25T09:54:27.378Z,1015.07
2018-07-25T09:55:27.328Z,1015.08
2018-07-25T09:56:27.262Z,1015.07
2018-07-25T09:57:27.298Z,1015.01
2018-07-25T09:59:28.495Z,1015.06
2018-07-25T10:00:27.227Z,1014.99
2018-07-25T10:01:27.109Z,1014.97
2018-07-25T10:04:27.150Z,1014.98
2018-07-25T10:06:28.214Z,1014.96
2018-07-25T10:07:27.467Z,1014.99
2018-07-25T10:08:27.330Z,1014.93
2018-07-25T10:09:27.216Z,1014.98
2018-07-25T10:11:27.305Z,1014.96
2018-07-25T10:12:27.165Z,1014.98
2018-07-25T10:13:27.441Z,1014.94
2018-07-25T10:14:28.449Z,1014.95
2018-07-25T10:16:27.263Z,1014.9
2018-07-25T10:17:27.307Z,1014.92
2018-07-25T10:18:27.295Z,1014.89
2018-07-25T10:19:27.274Z,1014.85
2018-07-25T10:21:28.198Z,1014.86
2018-07-25T10:22:27.366Z,1014.81
2018-07-25T10:24:27.341Z,1014.79
2018-07-25T10:25:27.356Z,1014.78
2018-07-25T10:26:27.469Z,1014.74
2018-07-25T10:27:27.763Z,1014.78
2018-07-25T10:29:28.531Z,1014.77
2018-07-25T10:30:27.366Z,1014.8
2018-07-25T10:31:27.308Z,1014.78
2018-07-25T10:34:27.282Z,1014.74
2018-07-25T10:36:28.560Z,1014.77
2018-07-25T10:37:27.420Z,1014.76
2018-07-25T10:38:27.345Z,1014.75
2018-07-25T10:41:27.292Z,1014.75
2018-07-25T10:42:27.561Z,1014.74
2018-07-25T10:43:27.520Z,1014.75
2018-07-25T10:46:27.231Z,1014.73
2018-07-25T10:47:27.227Z,1014.7
2018-07-25T10:48:27.257Z,1014.7
2018-07-25T10:49:27.265Z,1014.7
2018-07-25T10:51:28.096Z,1014.69
2018-07-25T10:53:27.344Z,1014.67
2018-07-25T10:54:27.439Z,1014.66
2018-07-25T10:55:27.381Z,1014.65
2018-07-25T10:56:27.566Z,1014.68
2018-07-25T10:58:27.419Z,1014.62
2018-07-25T10:59:28.538Z,1014.65
2018-07-25T11:00:27.338Z,1014.64
2018-07-25T11:01:27.427Z,1014.59
2018-07-25T11:04:27.588Z,1014.56
2018-07-25T11:05:27.285Z,1014.59
2018-07-25T11:06:28.030Z,1014.51
2018-07-25T11:08:27.244Z,1014.5
2018-07-25T11:09:27.257Z,1014.5
2018-07-25T11:10:27.409Z,1014.48
2018-07-25T11:11:27.703Z,1014.46
2018-07-25T11:14:27.262Z,1014.42
2018-07-25T11:15:28.401Z,1014.43
2018-07-25T11:16:27.861Z,1014.37
2018-07-25T11:19:27.679Z,1014.41
2018-07-25T11:20:27.537Z,1014.36
2018-07-25T11:21:27.624Z,1014.37
2018-07-25T11:22:28.193Z,1014.37
2018-07-25T11:24:27.246Z,1014.32
2018-07-25T11:26:27.381Z,1014.31
2018-07-25T11:27:27.295Z,1014.3
2018-07-25T11:28:27.257Z,1014.33
2018-07-25T11:29:28.066Z,1014.34
2018-07-25T11:31:27.235Z,1014.33
2018-07-25T11:32:27.433Z,1014.34
2018-07-25T11:33:27.532Z,1014.38
2018-07-25T11:34:27.319Z,1014.33
2018-07-25T11:36:27.189Z,1014.37
2018-07-25T11:37:27.172Z,1014.37
2018-07-25T11:38:27.212Z,1014.35
2018-07-25T11:39:27.193Z,1014.35
2018-07-25T11:41:27.234Z,1014.38
2018-07-25T11:42:27.209Z,1014.41
2018-07-25T11:43:27.219Z,1014.38
2018-07-25T11:44:27.214Z,1014.36
2018-07-25T11:46:27.209Z,1014.41
2018-07-25T11:48:27.172Z,1014.37
2018-07-25T11:49:27.184Z,1014.42
2018-07-25T11:50:27.614Z,1014.47
2018-07-25T11:52:27.213Z,1014.5
2018-07-25T11:53:27.213Z,1014.53
2018-07-25T11:54:27.211Z,1014.57
2018-07-25T11:55:27.606Z,1014.69
2018-07-25T11:57:27.204Z,1014.65
2018-07-25T11:58:27.259Z,1014.64
2018-07-25T11:59:27.161Z,1014.68
2018-07-25T12:00:27.172Z,1014.58
2018-07-25T12:02:27.317Z,1014.61
2018-07-25T12:03:27.275Z,1014.66
2018-07-25T12:04:27.217Z,1014.66
2018-07-25T12:05:27.103Z,1014.59
2018-07-25T12:08:27.291Z,1014.56
2018-07-25T12:09:28.357Z,1014.62
2018-07-25T12:10:27.219Z,1014.64
2018-07-25T12:11:27.299Z,1014.62
2018-07-25T12:13:27.432Z,1014.6
2018-07-25T12:14:27.264Z,1014.64
2018-07-25T12:15:27.250Z,1014.61
2018-07-25T12:16:27.251Z,1014.62
2018-07-25T12:19:27.247Z,1014.63
2018-07-25T12:20:27.362Z,1014.65
2018-07-25T12:21:27.189Z,1014.6
2018-07-25T12:24:28.490Z,1014.54
2018-07-25T12:25:27.238Z,1014.51
2018-07-25T12:26:27.522Z,1014.49
2018-07-25T12:29:27.244Z,1014.44
2018-07-25T12:30:27.210Z,1014.43
2018-07-25T12:31:28.486Z,1014.39
2018-07-25T12:35:27.381Z,1014.39
2018-07-25T12:36:27.264Z,1014.4
2018-07-25T12:37:27.322Z,1014.39
2018-07-25T12:38:27.747Z,1014.36
2018-07-25T12:40:27.179Z,1014.35
2018-07-25T12:41:27.302Z,1014.38
2018-07-25T12:42:27.370Z,1014.37
2018-07-25T12:43:27.195Z,1014.37
2018-07-25T12:46:28.031Z,1014.39
2018-07-25T12:48:27.584Z,1014.34
2018-07-25T12:51:27.206Z,1014.32
2018-07-25T12:52:27.257Z,1014.26
2018-07-25T12:53:28.164Z,1014.26
2018-07-25T12:55:27.081Z,1014.28
2018-07-25T12:56:27.234Z,1014.23
2018-07-25T12:57:27.175Z,1014.23
2018-07-25T12:58:27.230Z,1014.22
2018-07-25T13:00:27.897Z,1014.19
2018-07-25T13:01:27.237Z,1014.22
2018-07-25T13:02:27.251Z,1014.19
2018-07-25T13:03:27.204Z,1014.21
2018-07-25T13:05:27.264Z,1014.19
2018-07-25T13:06:27.083Z,1014.21
2018-07-25T13:07:27.245Z,1014.19
2018-07-25T13:08:28.557Z,1014.18
2018-07-25T13:10:27.515Z,1014.11
2018-07-25T13:11:27.327Z,1014.16
2018-07-25T13:12:27.241Z,1014.14
2018-07-25T13:13:27.388Z,1014.11
2018-07-25T13:17:27.331Z,1014.15
2018-07-25T13:18:27.191Z,1014.15
2018-07-25T13:19:27.283Z,1014.15
2018-07-25T13:20:27.302Z,1014.15
2018-07-25T13:22:27.310Z,1014.16
2018-07-25T13:23:28.595Z,1014.1
2018-07-25T13:24:27.216Z,1014.15
2018-07-25T13:25:27.372Z,1014.13
2018-07-25T13:28:27.942Z,1014.05
2018-07-25T13:29:27.196Z,1014.07
2018-07-25T13:30:28.030Z,1014.05
2018-07-25T13:33:27.238Z,1014.04
2018-07-25T13:34:27.328Z,1014.04
2018-07-25T13:35:27.351Z,1014.01
2018-07-25T13:36:27.158Z,1014.03
2018-07-25T13:38:28.703Z,1014.02
2018-07-25T13:39:27.281Z,1014.02
2018-07-25T13:40:27.226Z,1013.99
2018-07-25T13:42:27.244Z,1013.97
2018-07-25T13:43:27.217Z,1013.99
2018-07-25T13:44:27.239Z,1013.97
2018-07-25T13:45:28.664Z,1013.96
2018-07-25T13:48:27.164Z,1013.92
2018-07-25T13:49:27.230Z,1013.91
2018-07-25T13:50:27.206Z,1013.88
2018-07-25T13:51:27.396Z,1013.88
2018-07-25T13:53:27.209Z,1013.83
2018-07-25T13:54:27.265Z,1013.87
2018-07-25T13:55:27.231Z,1013.85
2018-07-25T13:56:27.228Z,1013.82
2018-07-25T13:58:27.339Z,1013.85
2018-07-25T13:59:27.271Z,1013.85
2018-07-25T14:00:28.122Z,1013.86
2018-07-25T14:01:27.034Z,1013.88
2018-07-25T14:03:27.157Z,1013.83
2018-07-25T14:04:27.255Z,1013.79
2018-07-25T14:05:27.222Z,1013.81
2018-07-25T14:06:27.155Z,1013.8
2018-07-25T14:08:27.238Z,1013.78
2018-07-25T14:10:27.187Z,1013.73
2018-07-25T14:11:27.426Z,1013.72
2018-07-25T14:12:27.174Z,1013.74
2018-07-25T14:13:27.188Z,1013.7
2018-07-25T14:16:27.216Z,1013.71
2018-07-25T14:17:27.076Z,1013.68
2018-07-25T14:19:27.198Z,1013.68
2018-07-25T14:20:27.207Z,1013.67
2018-07-25T14:21:27.168Z,1013.65
2018-07-25T14:22:28.336Z,1013.69
2018-07-25T14:24:27.678Z,1013.62
2018-07-25T14:25:27.100Z,1013.64
2018-07-25T14:27:27.462Z,1013.6
2018-07-25T14:28:27.311Z,1013.64
2018-07-25T14:29:27.762Z,1013.61
2018-07-25T14:31:27.256Z,1013.63